Time;durP1;ratioP1;P1;durP2;ratioP2;P2;SDS_P1;SDS_P2;PMS_P1;PMS_P2;Temp;Humidity;BMP_temperature;BMP_pressure;BME280_temperature;BME280_humidity;BME280_pressure;Samples;Min_cycle;Max_cycle;Signal;HPM_P1;HPM_P2
2022/04/17 00:00:19;;;;;;;9.68;5.75;;;6.60;77.60;;;;;;5037683;28;20026;-78
2022/04/17 00:02:44;;;;;;;17.63;5.45;;;6.70;76.70;;;;;;5050998;28;20024;-77
2022/04/17 00:05:10;;;;;;;8.95;4.55;;;6.80;77.50;;;;;;5053164;28;20009;-77
2022/04/17 00:07:36;;;;;;;9.15;4.45;;;7.00;75.60;;;;;;5051487;28;20134;-76
2022/04/17 00:10:03;;;;;;;9.70;5.55;;;7.00;75.70;;;;;;5038753;28;20056;-76
2022/04/17 00:12:29;;;;;;;6.93;3.60;;;7.00;75.30;;;;;;5037280;28;20033;-78
2022/04/17 00:14:55;;;;;;;8.25;4.00;;;7.00;75.40;;;;;;5035874;28;20021;-76
2022/04/17 00:17:21;;;;;;;9.32;4.40;;;7.00;75.60;;;;;;5034435;28;20175;-79
2022/04/17 00:19:47;;;;;;;7.68;4.90;;;7.00;75.40;;;;;;5035148;28;20495;-77
2022/04/17 00:22:13;;;;;;;8.68;5.20;;;6.90;75.70;;;;;;5033375;28;20117;-76
2022/04/17 00:24:39;;;;;;;6.72;4.38;;;7.00;75.70;;;;;;5033608;28;20026;-76
2022/04/17 00:27:05;;;;;;;8.90;5.20;;;7.00;75.10;;;;;;5033261;28;20033;-76
2022/04/17 00:29:31;;;;;;;8.85;4.18;;;7.10;75.10;;;;;;5034979;28;20030;-79
2022/04/17 00:31:57;;;;;;;7.78;4.18;;;7.10;75.50;;;;;;5033405;28;20057;-76
2022/04/17 00:34:23;;;;;;;6.40;4.20;;;7.00;75.40;;;;;;5034789;28;20436;-75
2022/04/17 00:36:49;;;;;;;14.00;5.85;;;7.00;75.80;;;;;;5036159;28;20112;-78
2022/04/17 00:39:14;;;;;;;10.30;4.15;;;6.90;76.10;;;;;;5035566;28;20071;-77
2022/04/17 00:41:40;;;;;;;9.15;5.07;;;6.80;76.90;;;;;;5037058;28;20025;-77
2022/04/17 00:44:13;;;;;;;6.32;4.45;;;6.70;77.60;;;;;;5047528;28;20040;-77
2022/04/17 00:46:42;;;;;;;9.02;4.70;;;6.60;77.30;;;;;;5008857;28;20026;-77
2022/04/17 00:49:07;;;;;;;8.05;4.05;;;6.70;77.10;;;;;;5000134;28;20029;-75
2022/04/17 00:51:35;;;;;;;10.05;5.32;;;6.70;77.70;;;;;;4995803;28;20109;-77
2022/04/17 00:54:03;;;;;;;8.88;5.18;;;6.60;78.20;;;;;;4995243;28;20520;-76
2022/04/17 00:56:30;;;;;;;10.57;5.78;;;6.50;80.10;;;;;;4995581;28;20031;-79
2022/04/17 00:58:56;;;;;;;11.25;6.32;;;6.30;81.90;;;;;;4996242;28;20072;-80
2022/04/17 01:01:22;;;;;;;9.65;5.53;;;6.20;83.30;;;;;;4997356;28;20062;-78
2022/04/17 01:03:49;;;;;;;12.18;6.40;;;6.00;85.30;;;;;;4996076;28;20433;-80
2022/04/17 01:06:15;;;;;;;10.85;6.47;;;5.90;86.90;;;;;;4994888;28;20038;-78
2022/04/17 01:08:42;;;;;;;9.55;6.40;;;5.60;91.20;;;;;;4995318;28;20026;-77
2022/04/17 01:11:09;;;;;;;11.50;6.60;;;5.40;95.20;;;;;;4995848;28;20199;-78
2022/04/17 01:13:38;;;;;;;9.93;6.18;;;5.10;99.90;;;;;;5010143;28;20045;-77
2022/04/17 01:16:05;;;;;;;11.60;5.90;;;5.00;99.90;;;;;;4995393;28;20081;-78
2022/04/17 01:18:55;;;;;;;13.70;6.20;;;5.10;99.90;;;;;;4995713;28;20026;-79
2022/04/17 01:21:21;;;;;;;11.30;6.28;;;5.20;99.90;;;;;;4995559;28;20042;-76
2022/04/17 01:29:17;;;;;;;14.18;6.63;;;4.90;99.90;;;;;;4997893;28;20076;-79
2022/04/17 01:31:43;;;;;;;15.40;7.18;;;4.70;99.90;;;;;;4998453;28;20097;-77
2022/04/17 01:34:09;;;;;;;11.45;6.38;;;4.60;99.90;;;;;;4997003;28;20112;-76
2022/04/17 01:36:34;;;;;;;10.00;6.18;;;4.30;99.90;;;;;;5013731;28;20540;-77
2022/04/17 01:39:00;;;;;;;11.02;6.53;;;4.20;99.90;;;;;;4998644;28;20479;-78
2022/04/17 01:41:25;;;;;;;10.02;5.55;;;4.10;99.90;;;;;;4995493;28;20470;-77
2022/04/17 01:43:51;;;;;;;11.70;6.55;;;4.00;99.90;;;;;;4996928;28;20533;-76
2022/04/17 01:46:17;;;;;;;9.25;5.75;;;4.00;99.90;;;;;;5031416;28;20311;-77
2022/04/17 01:48:42;;;;;;;9.88;6.05;;;4.10;99.90;;;;;;5035264;28;20018;-78
2022/04/17 01:51:08;;;;;;;14.15;7.28;;;4.10;99.90;;;;;;5033946;28;20374;-76
2022/04/17 01:53:33;;;;;;;17.55;8.80;;;4.10;99.90;;;;;;5034975;28;20040;-78
2022/04/17 01:56:00;;;;;;;12.48;7.13;;;4.10;99.90;;;;;;5035651;28;20101;-76
2022/04/17 01:58:25;;;;;;;10.02;6.30;;;3.90;99.90;;;;;;5035040;28;20022;-76
2022/04/17 02:00:51;;;;;;;13.55;6.93;;;3.70;99.90;;;;;;5034887;28;20044;-75
2022/04/17 02:03:16;;;;;;;13.85;7.72;;;3.70;99.90;;;;;;5037604;28;20083;-79
2022/04/17 02:05:42;;;;;;;11.80;7.28;;;3.70;99.90;;;;;;5038854;28;20461;-78
2022/04/17 02:08:08;;;;;;;14.80;7.05;;;3.80;99.90;;;;;;5037804;28;20147;-78
2022/04/17 02:10:34;;;;;;;11.85;6.82;;;3.80;99.90;;;;;;5034919;28;20025;-78
2022/04/17 02:13:00;;;;;;;9.75;6.35;;;3.80;99.90;;;;;;5034995;28;20107;-77
2022/04/17 02:15:26;;;;;;;13.70;6.97;;;3.80;99.90;;;;;;5034787;28;20101;-77
2022/04/17 02:17:52;;;;;;;9.25;5.97;;;4.10;99.90;;;;;;5034168;28;20048;-78
2022/04/17 02:20:18;;;;;;;11.55;6.35;;;4.40;99.90;;;;;;5033005;28;20466;-77
2022/04/17 02:22:45;;;;;;;13.82;7.28;;;4.50;99.90;;;;;;5035852;28;20083;-76
2022/04/17 02:25:11;;;;;;;11.48;6.55;;;4.70;99.90;;;;;;5035054;28;20010;-76
2022/04/17 02:27:36;;;;;;;12.38;6.70;;;4.70;99.90;;;;;;5034477;28;20458;-77
2022/04/17 02:30:06;;;;;;;14.35;7.72;;;4.70;99.90;;;;;;5034289;28;20025;-76
2022/04/17 02:32:31;;;;;;;13.95;7.80;;;4.60;99.90;;;;;;5034600;28;20025;-76
2022/04/17 02:34:58;;;;;;;16.25;8.13;;;4.50;99.90;;;;;;5031924;28;20392;-76
2022/04/17 02:37:23;;;;;;;17.38;8.45;;;4.40;99.90;;;;;;5034459;28;20475;-78
2022/04/17 02:39:49;;;;;;;16.67;7.72;;;4.40;99.90;;;;;;5034682;28;20036;-76
2022/04/17 02:42:14;;;;;;;13.35;7.88;;;4.20;99.90;;;;;;5033120;28;20405;-76
2022/04/17 02:44:40;;;;;;;15.82;8.80;;;4.10;99.90;;;;;;5045868;23;20098;-79
2022/04/17 02:49:50;;;;;;;17.35;10.15;;;4.00;99.90;;;;;;5033960;28;20037;-78
2022/04/17 02:52:16;;;;;;;18.60;10.15;;;4.00;99.90;;;;;;5035185;28;20048;-78
2022/04/17 02:54:42;;;;;;;23.02;9.75;;;4.10;99.90;;;;;;5033839;28;20021;-77
2022/04/17 02:57:07;;;;;;;18.42;10.25;;;4.20;99.90;;;;;;5032441;28;20036;-78
2022/04/17 02:59:33;;;;;;;17.90;10.10;;;4.10;99.90;;;;;;5033498;28;20033;-79
2022/04/17 03:07:29;;;;;;;24.35;11.55;;;4.00;99.90;;;;;;5033656;28;20040;-77
2022/04/17 03:09:54;;;;;;;23.50;10.85;;;3.90;99.90;;;;;;5031750;28;20049;-77
2022/04/17 03:12:20;;;;;;;18.38;9.60;;;3.80;99.90;;;;;;5033167;28;20497;-78
2022/04/17 03:14:46;;;;;;;17.00;9.32;;;3.80;99.90;;;;;;5033598;28;20021;-79
2022/04/17 03:17:12;;;;;;;20.17;9.70;;;3.80;99.90;;;;;;5032062;28;20032;-77
2022/04/17 03:19:37;;;;;;;19.23;9.55;;;3.60;99.90;;;;;;5032751;28;20033;-78
2022/04/17 03:22:04;;;;;;;19.60;9.95;;;3.50;99.90;;;;;;5033588;28;20056;-79
2022/04/17 03:24:31;;;;;;;17.15;9.13;;;3.40;99.90;;;;;;5035352;28;20026;-78
2022/04/17 03:26:57;;;;;;;16.48;9.15;;;3.30;99.90;;;;;;5034238;28;20029;-78
2022/04/17 03:29:23;;;;;;;21.38;9.63;;;3.20;99.90;;;;;;5034899;28;20053;-78
2022/04/17 03:31:48;;;;;;;14.88;8.80;;;3.10;99.90;;;;;;5035155;28;20021;-77
2022/04/17 03:34:14;;;;;;;15.80;9.15;;;2.90;99.90;;;;;;5034798;28;20026;-78
2022/04/17 03:36:40;;;;;;;17.33;9.52;;;2.70;99.90;;;;;;5033003;28;20036;-79
2022/04/17 03:39:06;;;;;;;19.30;10.32;;;2.70;99.90;;;;;;5032953;28;20370;-77
2022/04/17 03:41:32;;;;;;;14.98;9.85;;;2.80;99.90;;;;;;5033398;28;20036;-78
2022/04/17 03:43:58;;;;;;;18.77;8.75;;;2.90;99.90;;;;;;5033646;28;20469;-78
2022/04/17 03:46:23;;;;;;;17.20;8.73;;;2.80;99.90;;;;;;5034631;28;20057;-78
2022/04/17 03:48:49;;;;;;;14.07;8.32;;;2.70;99.90;;;;;;5034035;28;20025;-78
2022/04/17 03:51:14;;;;;;;18.83;9.38;;;2.50;99.90;;;;;;5033685;28;20109;-77
2022/04/17 03:53:42;;;;;;;18.83;9.60;;;2.30;99.90;;;;;;5033795;28;20421;-78
2022/04/17 03:56:08;;;;;;;16.00;9.63;;;2.20;99.90;;;;;;5033381;28;20120;-78
2022/04/17 03:58:33;;;;;;;17.75;10.30;;;2.20;99.90;;;;;;5041678;28;20070;-79
2022/04/17 04:00:59;;;;;;;15.35;9.52;;;2.10;99.90;;;;;;5046688;28;20416;-79
2022/04/17 04:03:24;;;;;;;16.23;8.48;;;2.00;99.90;;;;;;5034151;28;20190;-79
2022/04/17 04:05:50;;;;;;;15.88;9.70;;;1.80;99.90;;;;;;5040420;28;20121;-77
2022/04/17 04:08:15;;;;;;;17.77;10.20;;;1.80;99.90;;;;;;5032981;28;20483;-77
2022/04/17 04:10:41;;;;;;;15.68;9.52;;;1.70;99.90;;;;;;5033737;28;20390;-76
2022/04/17 04:13:06;;;;;;;16.83;11.45;;;1.60;99.90;;;;;;5030870;28;20396;-77
2022/04/17 04:15:32;;;;;;;17.67;10.30;;;1.60;99.90;;;;;;5033299;28;20033;-77
2022/04/17 04:17:57;;;;;;;22.40;10.48;;;1.60;99.90;;;;;;5033929;28;20033;-75
2022/04/17 04:20:23;;;;;;;19.20;10.65;;;1.60;99.90;;;;;;5033267;28;20086;-77
2022/04/17 04:22:48;;;;;;;19.95;11.07;;;1.50;99.90;;;;;;5033477;28;20036;-78
2022/04/17 04:25:15;;;;;;;18.00;11.30;;;1.50;99.90;;;;;;5032547;28;20041;-77
2022/04/17 04:30:25;;;;;;;21.05;12.02;;;1.50;99.90;;;;;;5032751;28;20088;-78
2022/04/17 04:32:56;;;;;;;19.80;12.10;;;1.50;99.90;;;;;;5033624;28;20021;-76
2022/04/17 04:35:22;;;;;;;21.35;11.57;;;1.50;99.90;;;;;;5032795;28;20036;-76
2022/04/17 04:37:48;;;;;;;20.10;12.93;;;1.50;99.90;;;;;;5030809;28;20080;-79
2022/04/17 04:40:15;;;;;;;20.23;11.23;;;1.40;99.90;;;;;;5032218;28;20361;-76
2022/04/17 04:42:41;;;;;;;23.55;12.85;;;1.40;99.90;;;;;;5034392;28;20026;-77
2022/04/17 04:47:51;;;;;;;18.85;10.80;;;1.60;99.90;;;;;;5014062;28;20033;-78
2022/04/17 04:50:17;;;;;;;27.98;13.98;;;1.70;99.90;;;;;;5013407;28;20022;-78
2022/04/17 04:52:42;;;;;;;24.20;12.63;;;1.70;99.90;;;;;;5018831;28;20026;-78
2022/04/17 04:55:08;;;;;;;21.25;12.10;;;1.90;99.90;;;;;;5019625;28;20030;-77
2022/04/17 04:57:37;;;;;;;21.70;11.68;;;2.00;99.90;;;;;;5014256;28;20045;-77
2022/04/17 05:00:07;;;;;;;22.67;10.88;;;2.00;99.90;;;;;;5016913;28;20036;-75
2022/04/17 05:02:37;;;;;;;19.73;11.23;;;2.20;99.90;;;;;;5016061;28;20033;-78
2022/04/17 05:05:04;;;;;;;17.42;10.13;;;2.40;99.90;;;;;;5015972;28;20026;-77
2022/04/17 05:07:30;;;;;;;21.33;11.18;;;2.50;99.90;;;;;;5016171;28;20144;-79
2022/04/17 05:09:56;;;;;;;20.08;11.23;;;2.60;99.90;;;;;;5018513;28;20021;-78
2022/04/17 05:12:22;;;;;;;18.52;9.88;;;2.60;99.90;;;;;;5017453;28;20037;-77
2022/04/17 05:14:48;;;;;;;21.30;11.32;;;2.60;99.90;;;;;;5017285;28;20033;-78
2022/04/17 05:17:13;;;;;;;16.00;10.13;;;2.70;99.90;;;;;;5015959;28;20030;-77
2022/04/17 05:19:39;;;;;;;18.45;9.98;;;2.70;99.90;;;;;;5014510;28;20172;-76
2022/04/17 05:22:10;;;;;;;16.33;10.32;;;2.80;99.90;;;;;;5016041;28;20030;-77
2022/04/17 05:24:36;;;;;;;16.13;9.55;;;3.10;99.90;;;;;;5015227;28;20041;-78
2022/04/17 05:27:02;;;;;;;17.77;9.65;;;3.10;99.90;;;;;;5015911;28;20080;-78
2022/04/17 05:29:28;;;;;;;17.33;9.75;;;3.20;99.90;;;;;;5017772;28;20030;-78
2022/04/17 05:31:53;;;;;;;13.50;8.85;;;3.40;99.90;;;;;;5016419;28;20038;-77
2022/04/17 05:34:19;;;;;;;17.00;10.32;;;3.60;99.90;;;;;;5014607;28;20048;-78
2022/04/17 05:36:44;;;;;;;17.65;9.57;;;3.80;99.90;;;;;;5018040;28;20382;-77
2022/04/17 05:39:10;;;;;;;15.10;9.50;;;4.00;99.90;;;;;;5015072;28;20128;-78
2022/04/17 05:41:37;;;;;;;16.25;9.25;;;4.20;99.90;;;;;;5016089;28;20381;-77
2022/04/17 05:44:05;;;;;;;17.08;9.60;;;4.40;99.90;;;;;;5015138;28;20060;-76
2022/04/17 05:46:36;;;;;;;17.15;9.38;;;4.70;99.90;;;;;;5034732;28;20025;-77
2022/04/17 05:49:05;;;;;;;16.02;9.23;;;4.90;99.90;;;;;;5035033;28;20025;-77
2022/04/17 05:51:36;;;;;;;15.45;9.40;;;5.20;99.90;;;;;;5035129;28;20477;-77
2022/04/17 05:54:05;;;;;;;15.82;8.68;;;5.50;99.90;;;;;;5036264;28;20068;-77
2022/04/17 05:56:32;;;;;;;16.85;9.32;;;5.60;99.90;;;;;;5036538;28;20047;-78
2022/04/17 05:58:58;;;;;;;13.88;8.13;;;5.90;99.90;;;;;;5035971;28;20087;-78
2022/04/17 06:01:24;;;;;;;13.38;8.55;;;6.20;99.90;;;;;;5036808;28;20355;-80
2022/04/17 06:03:50;;;;;;;15.88;7.75;;;6.50;99.90;;;;;;5035974;28;20028;-79
2022/04/17 06:06:19;;;;;;;16.15;8.38;;;6.80;99.90;;;;;;5035511;28;20029;-78
2022/04/17 06:08:48;;;;;;;13.98;7.97;;;7.20;99.90;;;;;;5035098;28;20034;-78
2022/04/17 06:11:13;;;;;;;13.50;7.88;;;7.60;99.90;;;;;;5036151;28;20048;-79
2022/04/17 06:13:39;;;;;;;11.18;7.20;;;7.80;99.90;;;;;;5038180;28;20026;-80
2022/04/17 06:16:05;;;;;;;12.43;8.35;;;8.20;99.90;;;;;;5037912;28;20211;-77
2022/04/17 06:18:30;;;;;;;11.00;7.20;;;8.40;99.90;;;;;;5034828;28;20026;-76
2022/04/17 06:20:56;;;;;;;12.82;8.00;;;8.80;99.90;;;;;;5035684;28;20565;-79
2022/04/17 06:23:22;;;;;;;11.18;8.07;;;9.10;99.90;;;;;;5035302;28;20034;-78
2022/04/17 06:25:48;;;;;;;12.43;7.50;;;9.30;99.90;;;;;;5035198;28;20044;-78
2022/04/17 06:28:13;;;;;;;10.52;7.10;;;9.50;98.30;;;;;;5034946;28;20049;-77
2022/04/17 06:30:39;;;;;;;14.88;7.18;;;9.70;96.70;;;;;;5035309;28;20070;-78
2022/04/17 06:33:04;;;;;;;10.70;7.00;;;9.80;93.70;;;;;;5034976;28;20021;-79
2022/04/17 06:35:30;;;;;;;13.05;8.07;;;9.90;92.70;;;;;;5035635;28;20488;-80
2022/04/17 06:38:00;;;;;;;12.13;7.15;;;9.80;91.70;;;;;;5033562;28;20022;-77
2022/04/17 06:40:28;;;;;;;12.55;7.38;;;9.90;92.10;;;;;;5033303;28;20040;-78
2022/04/17 06:42:57;;;;;;;10.90;7.03;;;10.00;91.70;;;;;;5035342;28;20053;-80
2022/04/17 06:45:25;;;;;;;11.73;6.93;;;10.10;90.60;;;;;;5025513;28;20042;-79
2022/04/17 06:47:50;;;;;;;10.63;6.63;;;10.10;90.40;;;;;;5014138;28;20033;-77
2022/04/17 06:50:18;;;;;;;11.00;6.88;;;10.40;89.60;;;;;;5015537;28;20034;-78
2022/04/17 06:52:44;;;;;;;7.35;5.30;;;10.60;85.80;;;;;;5015835;28;20041;-77
2022/04/17 06:55:11;;;;;;;9.25;5.97;;;11.00;82.80;;;;;;5013811;28;20113;-77
2022/04/17 06:57:39;;;;;;;10.60;6.55;;;11.10;80.70;;;;;;5013210;28;20030;-78
2022/04/17 07:00:10;;;;;;;7.72;6.35;;;11.40;79.60;;;;;;5015004;28;20363;-78
2022/04/17 07:02:40;;;;;;;11.98;6.18;;;11.40;78.80;;;;;;5014325;28;20131;-78
2022/04/17 07:05:07;;;;;;;11.35;6.40;;;11.50;78.20;;;;;;5014642;28;20026;-80
2022/04/17 07:07:33;;;;;;;12.68;5.70;;;11.60;77.50;;;;;;5015139;28;20033;-77
2022/04/17 07:09:59;;;;;;;8.18;6.20;;;11.70;76.40;;;;;;5012718;28;20026;-78
2022/04/17 07:12:24;;;;;;;8.13;5.35;;;12.00;75.80;;;;;;5012861;28;20028;-77
2022/04/17 07:14:50;;;;;;;9.90;5.50;;;12.10;74.30;;;;;;5014810;28;20022;-78
2022/04/17 07:17:15;;;;;;;7.55;5.28;;;12.50;74.00;;;;;;5013961;28;20296;-83
2022/04/17 07:19:41;;;;;;;6.97;5.20;;;13.00;70.10;;;;;;5015010;28;20034;-79
2022/04/17 07:22:06;;;;;;;7.68;5.50;;;13.40;69.70;;;;;;5024144;28;20037;-79
2022/04/17 07:24:32;;;;;;;7.57;5.25;;;13.80;67.50;;;;;;5032460;28;20037;-81
2022/04/17 07:27:00;;;;;;;6.25;4.40;;;14.20;66.40;;;;;;5016852;28;20030;-79
2022/04/17 07:29:26;;;;;;;5.47;2.88;;;14.60;66.60;;;;;;5015792;28;20119;-79
2022/04/17 07:31:53;;;;;;;3.67;2.30;;;14.20;61.40;;;;;;5016645;28;20109;-79
2022/04/17 07:34:22;;;;;;;3.22;2.08;;;14.40;61.90;;;;;;5015701;28;20045;-79
2022/04/17 07:36:52;;;;;;;5.18;2.05;;;14.70;61.30;;;;;;5015746;28;20454;-79
2022/04/17 07:39:18;;;;;;;4.95;2.30;;;14.90;59.60;;;;;;5015439;28;20018;-80
2022/04/17 07:41:45;;;;;;;5.90;2.58;;;15.00;59.10;;;;;;5015847;28;20029;-80
2022/04/17 07:44:11;;;;;;;4.25;1.95;;;15.20;59.00;;;;;;5014478;28;20144;-79
2022/04/17 07:46:41;;;;;;;3.50;1.80;;;15.40;58.00;;;;;;5035470;28;20045;-78
2022/04/17 07:49:07;;;;;;;4.95;1.90;;;15.70;56.60;;;;;;5032937;28;20086;-79
2022/04/17 07:51:33;;;;;;;4.28;1.55;;;15.30;55.10;;;;;;5034789;28;20104;-78
2022/04/17 07:54:00;;;;;;;5.57;1.60;;;15.60;55.80;;;;;;5034035;28;20021;-78
2022/04/17 07:56:26;;;;;;;10.95;4.22;;;15.70;55.40;;;;;;5034922;28;20366;-80
2022/04/17 07:58:52;;;;;;;2.25;1.38;;;15.80;55.60;;;;;;5033570;28;20034;-79
2022/04/17 08:01:17;;;;;;;2.08;1.27;;;15.90;54.90;;;;;;5034088;28;20030;-78
2022/04/17 08:06:10;;;;;;;5.15;1.58;;;16.60;56.30;;;;;;5034173;28;20026;-78
2022/04/17 08:08:39;;;;;;;3.58;1.63;;;16.80;52.80;;;;;;5034378;28;20334;-78
2022/04/17 08:11:06;;;;;;;2.35;1.60;;;17.00;51.50;;;;;;5042904;28;20040;-78
2022/04/17 08:13:32;;;;;;;5.38;1.65;;;17.30;50.90;;;;;;5030841;28;20053;-79
2022/04/17 08:15:59;;;;;;;3.08;1.65;;;17.10;50.50;;;;;;5032650;28;20021;-77
2022/04/17 08:18:24;;;;;;;3.13;1.80;;;17.10;51.70;;;;;;5031958;28;20030;-77
2022/04/17 08:20:50;;;;;;;3.63;1.85;;;17.20;51.20;;;;;;5031698;28;20109;-78
2022/04/17 08:23:16;;;;;;;2.10;1.50;;;16.90;51.40;;;;;;5033500;28;20122;-80
2022/04/17 08:25:42;;;;;;;2.35;1.40;;;16.80;50.70;;;;;;5034788;28;20028;-80
2022/04/17 08:28:08;;;;;;;2.33;1.50;;;16.80;53.00;;;;;;5032566;28;20021;-79
2022/04/17 08:30:35;;;;;;;2.78;1.50;;;17.30;51.70;;;;;;5031949;28;20024;-81
2022/04/17 08:33:04;;;;;;;4.30;1.77;;;17.70;51.80;;;;;;5033980;28;20025;-79
2022/04/17 08:35:30;;;;;;;2.53;1.50;;;17.60;49.90;;;;;;5033474;28;20503;-77
2022/04/17 08:38:00;;;;;;;2.88;1.27;;;17.40;51.00;;;;;;5034416;28;20319;-78
2022/04/17 08:40:27;;;;;;;4.00;1.67;;;17.70;49.90;;;;;;5034977;28;20029;-80
2022/04/17 08:42:53;;;;;;;3.83;1.67;;;17.90;48.30;;;;;;5036607;28;20022;-79
2022/04/17 08:45:19;;;;;;;2.50;1.30;;;17.90;47.70;;;;;;5051577;22;20080;-83
2022/04/17 08:47:45;;;;;;;2.50;1.33;;;17.90;47.30;;;;;;5036812;28;20041;-82
2022/04/17 08:50:13;;;;;;;2.20;1.17;;;18.00;47.50;;;;;;5035569;28;20026;-81
2022/04/17 08:52:41;;;;;;;4.55;1.83;;;18.00;47.70;;;;;;5036778;28;20080;-80
2022/04/17 08:55:08;;;;;;;3.08;2.35;;;18.10;47.30;;;;;;5034936;28;20048;-81
2022/04/17 08:57:34;;;;;;;3.90;1.48;;;17.90;50.20;;;;;;5020378;22;20573;-77
2022/04/17 09:00:01;;;;;;;1.77;1.40;;;18.20;51.00;;;;;;4995804;28;20022;-79
2022/04/17 09:02:27;;;;;;;4.00;2.80;;;18.70;48.60;;;;;;4998022;28;20049;-80
2022/04/17 09:04:52;;;;;;;4.93;2.78;;;18.90;49.70;;;;;;4999564;28;20023;-78
2022/04/17 09:07:18;;;;;;;4.88;3.33;;;18.80;48.20;;;;;;4997033;28;20180;-80
2022/04/17 09:09:52;;;;;;;4.03;2.38;;;18.70;49.40;;;;;;4995332;28;20023;-78
2022/04/17 09:12:25;;;;;;;5.28;3.30;;;18.80;49.80;;;;;;4995338;28;20360;-78
2022/04/17 09:14:53;;;;;;;5.32;3.08;;;18.80;48.70;;;;;;4993856;28;20560;-80
2022/04/17 09:17:19;;;;;;;4.05;2.70;;;19.00;48.90;;;;;;4992721;28;20128;-79
2022/04/17 09:19:45;;;;;;;5.13;3.20;;;19.20;49.60;;;;;;4994118;28;20474;-78
2022/04/17 09:22:12;;;;;;;5.13;3.13;;;18.90;48.20;;;;;;4993770;28;20034;-76
2022/04/17 09:24:40;;;;;;;5.00;3.22;;;18.90;49.10;;;;;;4994038;28;20030;-79
2022/04/17 09:27:07;;;;;;;3.60;2.53;;;18.70;48.90;;;;;;4993077;28;20390;-77
2022/04/17 09:29:35;;;;;;;3.50;2.33;;;18.40;49.90;;;;;;4992155;28;20505;-76
2022/04/17 09:32:11;;;;;;;4.55;2.58;;;18.70;49.30;;;;;;4992029;28;20125;-77
2022/04/17 09:34:42;;;;;;;3.05;2.22;;;18.80;48.80;;;;;;4993268;28;20406;-76
2022/04/17 09:37:16;;;;;;;4.15;2.47;;;19.20;48.90;;;;;;4994096;28;20263;-77
2022/04/17 09:39:43;;;;;;;3.63;1.95;;;19.50;47.90;;;;;;4993433;28;20053;-79
2022/04/17 09:42:09;;;;;;;4.88;2.33;;;19.30;46.90;;;;;;4994181;28;20061;-75
2022/04/17 09:44:36;;;;;;;3.58;2.60;;;19.30;47.70;;;;;;4999995;28;20389;-76
2022/04/17 09:47:03;;;;;;;5.47;2.78;;;19.10;48.10;;;;;;5016819;28;20030;-78
2022/04/17 09:49:29;;;;;;;5.22;2.72;;;19.20;48.90;;;;;;5020095;28;20026;-78
2022/04/17 09:52:08;;;;;;;4.03;2.35;;;19.60;47.70;;;;;;5018494;28;20107;-76
2022/04/17 09:54:34;;;;;;;3.58;1.90;;;19.90;47.20;;;;;;5019145;28;20061;-80
2022/04/17 09:57:00;;;;;;;4.72;2.60;;;19.40;45.60;;;;;;5016776;28;20125;-80
2022/04/17 09:59:27;;;;;;;4.75;2.30;;;19.20;47.20;;;;;;5017932;28;20045;-77
2022/04/17 10:01:57;;;;;;;5.53;2.08;;;19.00;47.70;;;;;;5016068;28;20028;-74
2022/04/17 10:04:27;;;;;;;5.55;2.67;;;18.90;49.90;;;;;;5016235;28;20036;-79
2022/04/17 10:06:54;;;;;;;4.28;2.15;;;19.20;48.30;;;;;;5017929;28;20481;-76
2022/04/17 10:09:20;;;;;;;3.17;2.17;;;19.30;47.30;;;;;;5015676;28;20021;-78
2022/04/17 10:11:47;;;;;;;3.60;2.60;;;19.40;48.40;;;;;;5020466;28;20030;-78
2022/04/17 10:14:14;;;;;;;3.20;2.60;;;19.40;47.70;;;;;;5023222;28;20048;-80
2022/04/17 10:16:41;;;;;;;5.53;2.80;;;19.60;47.80;;;;;;5022690;28;20061;-79
2022/04/17 10:19:12;;;;;;;4.45;2.42;;;19.80;47.20;;;;;;5021089;28;20583;-80
2022/04/17 10:21:41;;;;;;;3.60;2.22;;;19.90;48.50;;;;;;5018307;28;20022;-79
2022/04/17 10:24:12;;;;;;;3.20;2.08;;;19.80;46.50;;;;;;5017142;28;20030;-80
2022/04/17 10:26:41;;;;;;;3.22;2.20;;;19.50;48.10;;;;;;5017592;28;20025;-78
2022/04/17 10:29:12;;;;;;;3.72;2.42;;;19.40;47.60;;;;;;5016612;28;20137;-76
2022/04/17 10:32:08;;;;;;;4.57;2.92;;;19.50;46.90;;;;;;5017493;28;20060;-78
2022/04/17 10:34:39;;;;;;;4.95;2.92;;;19.40;46.80;;;;;;5018059;28;20363;-80
2022/04/17 10:37:36;;;;;;;4.78;2.72;;;19.70;48.90;;;;;;5017220;28;20026;-78
2022/04/17 10:40:02;;;;;;;5.28;2.40;;;19.90;48.90;;;;;;5016522;28;20025;-78
2022/04/17 10:42:35;;;;;;;4.88;2.97;;;20.00;47.40;;;;;;5017270;28;20033;-77
2022/04/17 10:45:05;;;;;;;4.03;2.75;;;20.00;45.90;;;;;;5010611;28;20430;-80
2022/04/17 10:47:32;;;;;;;4.47;2.67;;;20.10;46.40;;;;;;4997219;28;20406;-80
2022/04/17 10:49:57;;;;;;;4.22;2.47;;;20.40;46.40;;;;;;4997904;28;20027;-77
2022/04/17 10:52:32;;;;;;;6.70;4.38;;;20.10;45.30;;;;;;4997676;28;20018;-78
2022/04/17 10:55:12;;;;;;;4.47;2.55;;;19.60;46.50;;;;;;4995292;28;20018;-80
2022/04/17 10:57:48;;;;;;;5.00;2.80;;;19.50;46.70;;;;;;4996705;28;20034;-79
2022/04/17 11:00:36;;;;;;;3.70;2.60;;;19.60;47.10;;;;;;4997021;28;20091;-79
2022/04/17 11:03:09;;;;;;;4.05;2.63;;;19.70;46.50;;;;;;4996058;28;20030;-78
2022/04/17 11:08:26;;;;;;;5.50;3.58;;;19.70;48.50;;;;;;4996936;28;20049;-80
2022/04/17 11:11:02;;;;;;;3.60;2.30;;;20.00;47.70;;;;;;4996992;28;20026;-80
2022/04/17 11:13:28;;;;;;;3.10;2.65;;;20.30;47.80;;;;;;4995830;28;20102;-79
2022/04/17 11:15:58;;;;;;;4.38;2.58;;;20.40;46.70;;;;;;4997151;28;20064;-79
2022/04/17 11:18:27;;;;;;;4.55;2.33;;;20.60;47.00;;;;;;4997555;28;20556;-79
2022/04/17 11:20:54;;;;;;;4.38;2.60;;;20.90;46.20;;;;;;4997366;28;20022;-80
2022/04/17 11:23:47;;;;;;;4.35;2.72;;;21.00;45.20;;;;;;4996771;28;20026;-79
2022/04/17 11:26:13;;;;;;;3.42;2.50;;;20.90;44.50;;;;;;4995871;28;20714;-79
2022/04/17 11:28:39;;;;;;;3.15;2.10;;;20.90;43.30;;;;;;4996503;28;20070;-79
2022/04/17 11:31:05;;;;;;;5.85;2.40;;;21.20;45.00;;;;;;4995663;28;20510;-81
2022/04/17 11:33:31;;;;;;;3.80;1.85;;;21.10;44.10;;;;;;4996281;28;20026;-78
2022/04/17 11:35:57;;;;;;;3.83;1.90;;;21.00;43.90;;;;;;4996824;28;20025;-79
2022/04/17 11:38:23;;;;;;;3.80;1.73;;;20.80;44.20;;;;;;4997712;28;20019;-81
2022/04/17 11:40:49;;;;;;;2.75;1.80;;;20.50;45.50;;;;;;4997197;28;20037;-79
2022/04/17 11:43:17;;;;;;;2.60;2.05;;;20.10;45.20;;;;;;4997412;28;20086;-81
2022/04/17 11:45:45;;;;;;;4.32;2.13;;;20.50;45.30;;;;;;5007789;28;20026;-80
2022/04/17 11:48:13;;;;;;;2.92;2.17;;;20.20;45.00;;;;;;5015842;28;20026;-78
2022/04/17 11:50:40;;;;;;;6.35;2.45;;;20.10;45.70;;;;;;5014960;28;20041;-78
2022/04/17 11:53:16;;;;;;;3.05;2.33;;;20.00;45.00;;;;;;5015739;28;20500;-78
2022/04/17 11:55:44;;;;;;;4.28;2.42;;;20.10;45.20;;;;;;5015599;28;20056;-78
2022/04/17 11:58:30;;;;;;;3.72;2.15;;;20.00;45.40;;;;;;5015331;28;20033;-78
2022/04/17 12:01:01;;;;;;;3.63;2.53;;;20.20;44.00;;;;;;5014485;28;20505;-78
2022/04/17 12:03:38;;;;;;;4.18;3.15;;;20.40;45.00;;;;;;5014693;28;20059;-79
2022/04/17 12:06:06;;;;;;;5.32;3.05;;;20.40;45.40;;;;;;5014252;28;20031;-80
2022/04/17 12:08:36;;;;;;;4.95;2.90;;;20.30;44.60;;;;;;5013208;28;20406;-78
2022/04/17 12:11:07;;;;;;;5.93;3.13;;;20.40;45.70;;;;;;5016856;28;20021;-79
2022/04/17 12:13:33;;;;;;;5.32;3.00;;;20.10;45.20;;;;;;5015221;28;20025;-77
2022/04/17 12:16:01;;;;;;;4.57;2.90;;;20.10;46.50;;;;;;5016924;28;20395;-79
2022/04/17 12:18:27;;;;;;;5.57;2.90;;;20.30;45.00;;;;;;5016351;28;20112;-81
2022/04/17 12:21:06;;;;;;;4.15;2.85;;;20.00;46.40;;;;;;5016741;28;20021;-80
2022/04/17 12:23:35;;;;;;;5.05;2.70;;;20.20;46.60;;;;;;5014911;28;20489;-77
2022/04/17 12:26:05;;;;;;;4.93;2.72;;;20.40;46.40;;;;;;5018316;28;20033;-81
2022/04/17 12:28:30;;;;;;;4.85;2.67;;;20.50;44.70;;;;;;5015976;28;20022;-81
2022/04/17 12:30:56;;;;;;;3.85;2.75;;;20.70;44.80;;;;;;5025903;28;20398;-77
2022/04/17 12:33:31;;;;;;;5.25;2.67;;;20.50;44.60;;;;;;5017476;28;20036;-78
2022/04/17 12:36:12;;;;;;;5.65;3.35;;;20.60;44.90;;;;;;5018782;28;20537;-78
2022/04/17 12:38:40;;;;;;;6.18;2.88;;;20.50;45.20;;;;;;5020561;28;20508;-76
2022/04/17 12:41:25;;;;;;;7.35;3.90;;;20.30;45.50;;;;;;5018873;28;20072;-76
2022/04/17 12:43:51;;;;;;;5.97;3.33;;;20.10;46.00;;;;;;5015524;28;20049;-79
2022/04/17 12:46:28;;;;;;;6.15;3.50;;;19.90;45.80;;;;;;4998585;28;20034;-79
2022/04/17 12:49:11;;;;;;;6.25;3.08;;;20.00;47.90;;;;;;4998768;28;20026;-79
2022/04/17 12:51:52;;;;;;;6.95;3.92;;;20.30;47.20;;;;;;4999638;28;20019;-77
2022/04/17 12:54:17;;;;;;;4.97;3.30;;;20.40;45.30;;;;;;4994607;28;20027;-77
2022/04/17 12:56:43;;;;;;;6.80;4.05;;;20.00;45.60;;;;;;4995507;28;20066;-78
2022/04/17 12:59:11;;;;;;;5.93;3.72;;;20.00;46.80;;;;;;4995122;28;20092;-77
2022/04/17 13:01:40;;;;;;;6.93;3.80;;;20.30;46.10;;;;;;4994706;28;20105;-79
2022/04/17 13:04:20;;;;;;;4.45;2.92;;;20.20;48.20;;;;;;4993906;28;20491;-79
2022/04/17 13:06:48;;;;;;;7.07;2.78;;;20.40;46.20;;;;;;4996076;28;20023;-80
2022/04/17 13:09:18;;;;;;;5.90;3.30;;;20.30;44.30;;;;;;4994393;28;20110;-80
2022/04/17 13:11:52;;;;;;;5.15;3.38;;;20.40;44.50;;;;;;4996765;28;20026;-79